sensor_id;sensor_type;location;lat;lon;timestamp;pressure;altitude;pressure_sealevel;temperature;humidity
3780;BME280;1905;52.482;9.802;2022-07-06T00:01:00;101777.34;;;18.66;51.42
3780;BME280;1905;52.482;9.802;2022-07-06T00:03:28;101780.19;;;18.63;51.37
3780;BME280;1905;52.482;9.802;2022-07-06T00:05:56;101782.28;;;18.58;51.47
3780;BME280;1905;52.482;9.802;2022-07-06T00:08:24;101781.59;;;18.54;51.40
3780;BME280;1905;52.482;9.802;2022-07-06T00:10:51;101775.38;;;18.54;51.51
3780;BME280;1905;52.482;9.802;2022-07-06T00:13:19;101773.84;;;18.50;51.48
3780;BME280;1905;52.482;9.802;2022-07-06T00:15:46;101778.47;;;18.46;51.45
3780;BME280;1905;52.482;9.802;2022-07-06T00:18:15;101770.75;;;18.41;51.64
3780;BME280;1905;52.482;9.802;2022-07-06T00:20:43;101779.69;;;18.40;51.50
3780;BME280;1905;52.482;9.802;2022-07-06T00:23:11;101780.69;;;18.39;51.47
3780;BME280;1905;52.482;9.802;2022-07-06T00:25:38;101776.44;;;18.35;51.69
3780;BME280;1905;52.482;9.802;2022-07-06T00:28:06;101779.41;;;18.31;51.64
3780;BME280;1905;52.482;9.802;2022-07-06T00:30:34;101778.69;;;18.27;51.45
3780;BME280;1905;52.482;9.802;2022-07-06T00:33:02;101783.28;;;18.25;51.54
3780;BME280;1905;52.482;9.802;2022-07-06T00:35:32;101783.47;;;18.22;51.63
3780;BME280;1905;52.482;9.802;2022-07-06T00:37:59;101779.03;;;18.21;51.85
3780;BME280;1905;52.482;9.802;2022-07-06T00:40:27;101774.84;;;18.17;51.61
3780;BME280;1905;52.482;9.802;2022-07-06T00:42:56;101773.22;;;18.15;51.97
3780;BME280;1905;52.482;9.802;2022-07-06T00:45:24;101780.53;;;18.11;51.42
3780;BME280;1905;52.482;9.802;2022-07-06T00:47:52;101775.09;;;18.13;51.57
3780;BME280;1905;52.482;9.802;2022-07-06T00:50:19;101779.78;;;18.09;51.81
3780;BME280;1905;52.482;9.802;2022-07-06T00:52:51;101781.69;;;18.07;51.93
3780;BME280;1905;52.482;9.802;2022-07-06T00:55:22;101782.69;;;18.05;51.97
3780;BME280;1905;52.482;9.802;2022-07-06T00:57:52;101790.81;;;18.03;51.55
3780;BME280;1905;52.482;9.802;2022-07-06T01:00:23;101780.28;;;18.00;51.68
3780;BME280;1905;52.482;9.802;2022-07-06T01:02:51;101789.34;;;17.98;51.99
3780;BME280;1905;52.482;9.802;2022-07-06T01:05:20;101778.75;;;17.96;51.70
3780;BME280;1905;52.482;9.802;2022-07-06T01:07:51;101778.75;;;17.96;51.85
3780;BME280;1905;52.482;9.802;2022-07-06T01:10:20;101783.47;;;17.91;51.82
3780;BME280;1905;52.482;9.802;2022-07-06T01:12:48;101786.25;;;17.90;51.96
3780;BME280;1905;52.482;9.802;2022-07-06T01:15:18;101781.75;;;17.90;51.96
3780;BME280;1905;52.482;9.802;2022-07-06T01:17:46;101779.25;;;17.87;51.58
3780;BME280;1905;52.482;9.802;2022-07-06T01:20:16;101782.00;;;17.85;52.02
3780;BME280;1905;52.482;9.802;2022-07-06T01:22:46;101772.34;;;17.83;51.92
3780;BME280;1905;52.482;9.802;2022-07-06T01:25:14;101786.69;;;17.82;51.99
3780;BME280;1905;52.482;9.802;2022-07-06T01:27:42;101778.72;;;17.80;51.65
3780;BME280;1905;52.482;9.802;2022-07-06T01:30:12;101775.22;;;17.80;52.01
3780;BME280;1905;52.482;9.802;2022-07-06T01:32:40;101772.72;;;17.77;52.08
3780;BME280;1905;52.482;9.802;2022-07-06T01:35:11;101774.59;;;17.75;51.90
3780;BME280;1905;52.482;9.802;2022-07-06T01:37:40;101773.81;;;17.73;51.84
3780;BME280;1905;52.482;9.802;2022-07-06T01:40:10;101772.09;;;17.72;52.01
3780;BME280;1905;52.482;9.802;2022-07-06T01:42:39;101780.09;;;17.72;51.88
3780;BME280;1905;52.482;9.802;2022-07-06T01:45:08;101767.88;;;17.68;52.07
3780;BME280;1905;52.482;9.802;2022-07-06T01:47:37;101777.69;;;17.67;52.00
3780;BME280;1905;52.482;9.802;2022-07-06T01:50:07;101776.94;;;17.65;52.17
3780;BME280;1905;52.482;9.802;2022-07-06T01:52:41;101767.19;;;17.64;52.15
3780;BME280;1905;52.482;9.802;2022-07-06T01:55:09;101772.63;;;17.63;52.24
3780;BME280;1905;52.482;9.802;2022-07-06T01:57:37;101773.56;;;17.62;52.42
3780;BME280;1905;52.482;9.802;2022-07-06T02:00:06;101770.97;;;17.60;52.27
3780;BME280;1905;52.482;9.802;2022-07-06T02:02:45;101768.53;;;17.56;52.19
3780;BME280;1905;52.482;9.802;2022-07-06T02:05:12;101768.53;;;17.56;52.17
3780;BME280;1905;52.482;9.802;2022-07-06T02:07:41;101763.38;;;17.53;52.15
3780;BME280;1905;52.482;9.802;2022-07-06T02:10:10;101763.38;;;17.53;52.55
3780;BME280;1905;52.482;9.802;2022-07-06T02:12:38;101761.63;;;17.52;52.35
3780;BME280;1905;52.482;9.802;2022-07-06T02:15:07;101756.53;;;17.47;52.11
3780;BME280;1905;52.482;9.802;2022-07-06T02:17:35;101754.72;;;17.48;52.56
3780;BME280;1905;52.482;9.802;2022-07-06T02:20:03;101768.00;;;17.49;52.43
3780;BME280;1905;52.482;9.802;2022-07-06T02:22:32;101769.03;;;17.47;52.48
3780;BME280;1905;52.482;9.802;2022-07-06T02:25:02;101770.22;;;17.41;52.41
3780;BME280;1905;52.482;9.802;2022-07-06T02:27:30;101770.28;;;17.40;52.18
3780;BME280;1905;52.482;9.802;2022-07-06T02:30:00;101781.94;;;17.39;52.48
3780;BME280;1905;52.482;9.802;2022-07-06T02:32:30;101780.38;;;17.35;52.46
3780;BME280;1905;52.482;9.802;2022-07-06T02:34:58;101784.94;;;17.33;52.22
3780;BME280;1905;52.482;9.802;2022-07-06T02:37:26;101775.34;;;17.28;52.34
3780;BME280;1905;52.482;9.802;2022-07-06T02:39:54;101775.53;;;17.25;52.54
3780;BME280;1905;52.482;9.802;2022-07-06T02:42:23;101772.78;;;17.27;52.50
3780;BME280;1905;52.482;9.802;2022-07-06T02:44:52;101783.63;;;17.24;52.80
3780;BME280;1905;52.482;9.802;2022-07-06T02:47:20;101776.53;;;17.23;52.56
3780;BME280;1905;52.482;9.802;2022-07-06T02:49:48;101772.22;;;17.20;52.59
3780;BME280;1905;52.482;9.802;2022-07-06T02:52:16;101783.88;;;17.19;52.64
3780;BME280;1905;52.482;9.802;2022-07-06T02:54:43;101784.03;;;17.16;52.31
3780;BME280;1905;52.482;9.802;2022-07-06T02:57:11;101778.09;;;17.11;53.34
3780;BME280;1905;52.482;9.802;2022-07-06T02:59:40;101778.09;;;17.11;52.56
3780;BME280;1905;52.482;9.802;2022-07-06T03:02:08;101779.13;;;17.09;53.20
3780;BME280;1905;52.482;9.802;2022-07-06T03:04:36;101782.88;;;17.05;52.98
3780;BME280;1905;52.482;9.802;2022-07-06T03:07:04;101783.84;;;17.04;53.08
3780;BME280;1905;52.482;9.802;2022-07-06T03:09:32;101783.84;;;17.04;52.78
3780;BME280;1905;52.482;9.802;2022-07-06T03:11:59;101789.56;;;16.96;52.82
3780;BME280;1905;52.482;9.802;2022-07-06T03:14:29;101788.94;;;16.91;53.31
3780;BME280;1905;52.482;9.802;2022-07-06T03:16:58;101785.50;;;16.89;52.89
3780;BME280;1905;52.482;9.802;2022-07-06T03:19:26;101786.50;;;16.87;53.26
3780;BME280;1905;52.482;9.802;2022-07-06T03:21:56;101785.66;;;16.86;53.22
3780;BME280;1905;52.482;9.802;2022-07-06T03:24:24;101781.44;;;16.82;53.10
3780;BME280;1905;52.482;9.802;2022-07-06T03:26:52;101786.75;;;16.82;53.06
3780;BME280;1905;52.482;9.802;2022-07-06T03:29:20;101790.38;;;16.81;53.42
3780;BME280;1905;52.482;9.802;2022-07-06T03:31:49;101789.50;;;16.81;53.71
3780;BME280;1905;52.482;9.802;2022-07-06T03:34:18;101795.84;;;16.78;53.31
3780;BME280;1905;52.482;9.802;2022-07-06T03:36:46;101788.72;;;16.79;53.02
3780;BME280;1905;52.482;9.802;2022-07-06T03:39:14;101795.09;;;16.76;53.48
3780;BME280;1905;52.482;9.802;2022-07-06T03:41:41;101788.09;;;16.74;53.11
3780;BME280;1905;52.482;9.802;2022-07-06T03:44:09;101790.66;;;16.75;53.13
3780;BME280;1905;52.482;9.802;2022-07-06T03:46:38;101785.44;;;16.74;53.12
3780;BME280;1905;52.482;9.802;2022-07-06T03:49:06;101785.50;;;16.72;52.94
3780;BME280;1905;52.482;9.802;2022-07-06T03:51:35;101795.47;;;16.69;53.23
3780;BME280;1905;52.482;9.802;2022-07-06T03:54:04;101788.31;;;16.69;52.95
3780;BME280;1905;52.482;9.802;2022-07-06T03:56:32;101780.31;;;16.69;53.78
3780;BME280;1905;52.482;9.802;2022-07-06T03:59:05;101785.66;;;16.69;53.74
3780;BME280;1905;52.482;9.802;2022-07-06T04:01:36;101798.97;;;16.69;53.32
3780;BME280;1905;52.482;9.802;2022-07-06T04:04:04;101792.88;;;16.67;53.35
3780;BME280;1905;52.482;9.802;2022-07-06T04:06:33;101792.81;;;16.69;53.83
3780;BME280;1905;52.482;9.802;2022-07-06T04:09:04;101805.28;;;16.68;54.15
3780;BME280;1905;52.482;9.802;2022-07-06T04:11:32;101806.06;;;16.70;53.78
3780;BME280;1905;52.482;9.802;2022-07-06T04:14:00;101803.53;;;16.67;53.30
3780;BME280;1905;52.482;9.802;2022-07-06T04:16:27;101812.31;;;16.69;53.25
3780;BME280;1905;52.482;9.802;2022-07-06T04:18:56;101820.41;;;16.67;53.46
3780;BME280;1905;52.482;9.802;2022-07-06T04:21:24;101805.44;;;16.65;53.47
3780;BME280;1905;52.482;9.802;2022-07-06T04:23:52;101807.00;;;16.69;53.89
3780;BME280;1905;52.482;9.802;2022-07-06T04:26:21;101815.00;;;16.69;54.00
3780;BME280;1905;52.482;9.802;2022-07-06T04:28:50;101816.63;;;16.72;53.21
3780;BME280;1905;52.482;9.802;2022-07-06T04:31:18;101810.28;;;16.74;53.76
3780;BME280;1905;52.482;9.802;2022-07-06T04:33:48;101807.69;;;16.73;53.43
3780;BME280;1905;52.482;9.802;2022-07-06T04:36:16;101811.16;;;16.75;53.37
3780;BME280;1905;52.482;9.802;2022-07-06T04:38:45;101808.56;;;16.73;53.55
3780;BME280;1905;52.482;9.802;2022-07-06T04:41:14;101811.16;;;16.75;53.15
3780;BME280;1905;52.482;9.802;2022-07-06T04:43:44;101805.81;;;16.75;53.23
3780;BME280;1905;52.482;9.802;2022-07-06T04:46:16;101807.47;;;16.77;53.52
3780;BME280;1905;52.482;9.802;2022-07-06T04:48:46;101810.13;;;16.77;53.46
3780;BME280;1905;52.482;9.802;2022-07-06T04:51:19;101803.63;;;16.83;52.73
3780;BME280;1905;52.482;9.802;2022-07-06T04:53:47;101806.22;;;16.84;52.95
3780;BME280;1905;52.482;9.802;2022-07-06T04:56:15;101807.94;;;16.85;53.02
3780;BME280;1905;52.482;9.802;2022-07-06T04:58:45;101804.16;;;16.89;52.66
3780;BME280;1905;52.482;9.802;2022-07-06T05:01:16;101805.91;;;16.90;53.00
3780;BME280;1905;52.482;9.802;2022-07-06T05:03:43;101807.63;;;16.91;53.34
3780;BME280;1905;52.482;9.802;2022-07-06T05:06:13;101807.47;;;16.94;52.63
3780;BME280;1905;52.482;9.802;2022-07-06T05:08:42;101807.47;;;16.94;53.11
3780;BME280;1905;52.482;9.802;2022-07-06T05:11:10;101803.84;;;16.95;53.14
3780;BME280;1905;52.482;9.802;2022-07-06T05:13:38;101808.22;;;16.96;53.34
3780;BME280;1905;52.482;9.802;2022-07-06T05:16:08;101803.59;;;17.00;53.19
3780;BME280;1905;52.482;9.802;2022-07-06T05:18:36;101799.91;;;17.02;53.42
3780;BME280;1905;52.482;9.802;2022-07-06T05:21:04;101796.31;;;17.03;53.20
3780;BME280;1905;52.482;9.802;2022-07-06T05:23:32;101796.31;;;17.03;54.42
3780;BME280;1905;52.482;9.802;2022-07-06T05:26:00;101808.69;;;17.04;53.09
3780;BME280;1905;52.482;9.802;2022-07-06T05:28:29;101810.44;;;17.05;53.51
3780;BME280;1905;52.482;9.802;2022-07-06T05:31:04;101803.03;;;17.10;53.88
3780;BME280;1905;52.482;9.802;2022-07-06T05:33:33;101811.97;;;17.09;52.93
3780;BME280;1905;52.482;9.802;2022-07-06T05:36:02;101806.50;;;17.12;53.61
3780;BME280;1905;52.482;9.802;2022-07-06T05:38:31;101810.75;;;17.16;53.12
3780;BME280;1905;52.482;9.802;2022-07-06T05:40:59;101815.16;;;17.17;53.47
3780;BME280;1905;52.482;9.802;2022-07-06T05:43:26;101814.13;;;17.20;52.81
3780;BME280;1905;52.482;9.802;2022-07-06T05:45:57;101816.53;;;17.24;53.11
3780;BME280;1905;52.482;9.802;2022-07-06T05:48:29;101822.66;;;17.26;53.22
3780;BME280;1905;52.482;9.802;2022-07-06T05:51:16;101825.16;;;17.30;52.80
3780;BME280;1905;52.482;9.802;2022-07-06T05:53:45;101823.19;;;17.33;53.23
3780;BME280;1905;52.482;9.802;2022-07-06T05:56:14;101829.06;;;17.40;52.62
3780;BME280;1905;52.482;9.802;2022-07-06T05:58:42;101824.69;;;17.39;54.06
3780;BME280;1905;52.482;9.802;2022-07-06T06:01:10;101823.47;;;17.44;52.58
3780;BME280;1905;52.482;9.802;2022-07-06T06:03:40;101818.66;;;17.51;52.57
3780;BME280;1905;52.482;9.802;2022-07-06T06:06:07;101825.81;;;17.50;52.96
3780;BME280;1905;52.482;9.802;2022-07-06T06:08:36;101826.53;;;17.54;53.53
3780;BME280;1905;52.482;9.802;2022-07-06T06:11:04;101821.66;;;17.62;52.64
3780;BME280;1905;52.482;9.802;2022-07-06T06:13:39;101822.25;;;17.67;52.75
3780;BME280;1905;52.482;9.802;2022-07-06T06:16:06;101822.03;;;17.71;52.71
3780;BME280;1905;52.482;9.802;2022-07-06T06:18:34;101824.53;;;17.74;53.67
3780;BME280;1905;52.482;9.802;2022-07-06T06:21:08;101821.91;;;17.73;53.06
3780;BME280;1905;52.482;9.802;2022-07-06T06:23:37;101829.44;;;17.82;52.48
3780;BME280;1905;52.482;9.802;2022-07-06T06:26:05;101829.09;;;17.88;52.37
3780;BME280;1905;52.482;9.802;2022-07-06T06:28:33;101827.03;;;17.93;52.39
3780;BME280;1905;52.482;9.802;2022-07-06T06:31:01;101822.28;;;17.98;52.22
3780;BME280;1905;52.482;9.802;2022-07-06T06:33:29;101829.44;;;17.98;52.67
3780;BME280;1905;52.482;9.802;2022-07-06T06:35:57;101825.56;;;18.03;52.78
3780;BME280;1905;52.482;9.802;2022-07-06T06:38:24;101826.00;;;18.11;51.68
3780;BME280;1905;52.482;9.802;2022-07-06T06:40:56;101823.03;;;18.16;51.65
3780;BME280;1905;52.482;9.802;2022-07-06T06:43:24;101832.63;;;18.20;52.26
3780;BME280;1905;52.482;9.802;2022-07-06T06:46:10;101838.41;;;18.28;51.84
3780;BME280;1905;52.482;9.802;2022-07-06T06:48:38;101837.38;;;18.30;51.74
3780;BME280;1905;52.482;9.802;2022-07-06T06:51:05;101837.91;;;18.37;51.23
3780;BME280;1905;52.482;9.802;2022-07-06T06:53:33;101835.88;;;18.40;51.52
3780;BME280;1905;52.482;9.802;2022-07-06T06:56:07;101844.34;;;18.49;51.31
3780;BME280;1905;52.482;9.802;2022-07-06T06:58:35;101841.44;;;18.53;51.32
3780;BME280;1905;52.482;9.802;2022-07-06T07:01:23;101848.44;;;18.56;51.39
3780;BME280;1905;52.482;9.802;2022-07-06T07:03:51;101841.84;;;18.61;50.99
3780;BME280;1905;52.482;9.802;2022-07-06T07:06:19;101856.88;;;18.64;52.03
3780;BME280;1905;52.482;9.802;2022-07-06T07:08:47;101844.78;;;18.72;51.81
3780;BME280;1905;52.482;9.802;2022-07-06T07:11:16;101848.91;;;18.78;51.07
3780;BME280;1905;52.482;9.802;2022-07-06T07:13:43;101853.88;;;18.84;50.73
3780;BME280;1905;52.482;9.802;2022-07-06T07:16:11;101853.44;;;18.91;50.59
3780;BME280;1905;52.482;9.802;2022-07-06T07:18:39;101863.28;;;18.91;50.98
3780;BME280;1905;52.482;9.802;2022-07-06T07:21:07;101858.31;;;18.99;50.85
3780;BME280;1905;52.482;9.802;2022-07-06T07:23:35;101868.47;;;19.08;50.58
3780;BME280;1905;52.482;9.802;2022-07-06T07:26:03;101872.59;;;19.14;50.73
3780;BME280;1905;52.482;9.802;2022-07-06T07:28:32;101875.38;;;19.12;51.30
3780;BME280;1905;52.482;9.802;2022-07-06T07:30:59;101876.53;;;19.22;50.55
3780;BME280;1905;52.482;9.802;2022-07-06T07:33:27;101881.34;;;19.31;50.21
3780;BME280;1905;52.482;9.802;2022-07-06T07:35:55;101877.75;;;19.17;50.84
3780;BME280;1905;52.482;9.802;2022-07-06T07:38:22;101878.09;;;19.26;50.61
3780;BME280;1905;52.482;9.802;2022-07-06T07:40:53;101876.31;;;19.41;50.24
3780;BME280;1905;52.482;9.802;2022-07-06T07:43:20;101882.53;;;19.41;50.22
3780;BME280;1905;52.482;9.802;2022-07-06T07:45:49;101876.22;;;19.42;50.16
3780;BME280;1905;52.482;9.802;2022-07-06T07:48:17;101875.94;;;19.47;50.15
3780;BME280;1905;52.482;9.802;2022-07-06T07:50:45;101875.84;;;19.63;49.75
3780;BME280;1905;52.482;9.802;2022-07-06T07:53:12;101872.22;;;19.64;49.89
3780;BME280;1905;52.482;9.802;2022-07-06T07:55:40;101869.53;;;19.78;49.30
3780;BME280;1905;52.482;9.802;2022-07-06T07:58:08;101876.81;;;19.76;49.42
3780;BME280;1905;52.482;9.802;2022-07-06T08:00:36;101876.22;;;19.85;49.26
3780;BME280;1905;52.482;9.802;2022-07-06T08:03:05;101883.69;;;19.94;49.27
3780;BME280;1905;52.482;9.802;2022-07-06T08:05:33;101878.53;;;20.05;48.94
3780;BME280;1905;52.482;9.802;2022-07-06T08:08:00;101876.72;;;20.05;49.25
3780;BME280;1905;52.482;9.802;2022-07-06T08:10:28;101875.81;;;20.19;48.95
3780;BME280;1905;52.482;9.802;2022-07-06T08:13:12;101870.06;;;20.25;48.67
3780;BME280;1905;52.482;9.802;2022-07-06T08:15:41;101870.94;;;20.26;48.66
3780;BME280;1905;52.482;9.802;2022-07-06T08:18:10;101865.84;;;20.35;48.82
3780;BME280;1905;52.482;9.802;2022-07-06T08:20:38;101867.50;;;20.50;48.42
3780;BME280;1905;52.482;9.802;2022-07-06T08:23:26;101864.97;;;20.61;48.01
3780;BME280;1905;52.482;9.802;2022-07-06T08:25:54;101873.25;;;20.71;47.89
3780;BME280;1905;52.482;9.802;2022-07-06T08:28:21;101870.91;;;20.79;48.18
3780;BME280;1905;52.482;9.802;2022-07-06T08:30:50;101875.28;;;20.94;47.65
3780;BME280;1905;52.482;9.802;2022-07-06T08:33:19;101865.41;;;20.95;47.21
3780;BME280;1905;52.482;9.802;2022-07-06T08:35:47;101869.00;;;20.81;47.39
3780;BME280;1905;52.482;9.802;2022-07-06T08:38:15;101864.94;;;20.88;47.87
3780;BME280;1905;52.482;9.802;2022-07-06T08:40:45;101857.66;;;21.03;47.92
3780;BME280;1905;52.482;9.802;2022-07-06T08:43:13;101858.59;;;21.16;47.63
3780;BME280;1905;52.482;9.802;2022-07-06T08:45:42;101857.97;;;21.25;47.40
3780;BME280;1905;52.482;9.802;2022-07-06T08:48:11;101848.06;;;21.38;47.31
3780;BME280;1905;52.482;9.802;2022-07-06T08:50:41;101843.31;;;21.54;47.34
3780;BME280;1905;52.482;9.802;2022-07-06T08:53:09;101847.63;;;21.57;47.02
3780;BME280;1905;52.482;9.802;2022-07-06T08:55:36;101849.53;;;21.67;47.01
3780;BME280;1905;52.482;9.802;2022-07-06T08:58:05;101841.34;;;21.69;46.95
3780;BME280;1905;52.482;9.802;2022-07-06T09:00:33;101855.53;;;21.83;46.91
3780;BME280;1905;52.482;9.802;2022-07-06T09:03:01;101839.53;;;21.94;46.65
3780;BME280;1905;52.482;9.802;2022-07-06T09:05:30;101845.53;;;21.85;44.48
3780;BME280;1905;52.482;9.802;2022-07-06T09:08:02;101836.84;;;21.94;45.62
3780;BME280;1905;52.482;9.802;2022-07-06T09:10:29;101834.06;;;22.20;46.25
3780;BME280;1905;52.482;9.802;2022-07-06T09:13:04;101833.66;;;22.37;46.51
3780;BME280;1905;52.482;9.802;2022-07-06T09:15:32;101839.97;;;22.25;44.83
3780;BME280;1905;52.482;9.802;2022-07-06T09:18:01;101842.16;;;22.20;43.45
3780;BME280;1905;52.482;9.802;2022-07-06T09:20:29;101840.41;;;22.19;44.07
3780;BME280;1905;52.482;9.802;2022-07-06T09:22:58;101854.88;;;22.41;45.43
3780;BME280;1905;52.482;9.802;2022-07-06T09:25:28;101849.88;;;22.48;44.86
3780;BME280;1905;52.482;9.802;2022-07-06T09:27:57;101849.06;;;22.71;45.01
3780;BME280;1905;52.482;9.802;2022-07-06T09:30:26;101845.84;;;22.66;45.13
3780;BME280;1905;52.482;9.802;2022-07-06T09:32:55;101846.41;;;22.82;44.63
3780;BME280;1905;52.482;9.802;2022-07-06T09:35:24;101842.72;;;22.83;44.21
3780;BME280;1905;52.482;9.802;2022-07-06T09:38:00;101841.06;;;22.93;44.25
3780;BME280;1905;52.482;9.802;2022-07-06T09:40:31;101837.41;;;23.05;44.56
3780;BME280;1905;52.482;9.802;2022-07-06T09:43:14;101844.53;;;23.06;44.34
3780;BME280;1905;52.482;9.802;2022-07-06T09:45:43;101838.28;;;23.06;44.44
3780;BME280;1905;52.482;9.802;2022-07-06T09:48:12;101836.41;;;22.95;42.60
3780;BME280;1905;52.482;9.802;2022-07-06T09:50:45;101841.31;;;23.01;43.46
3780;BME280;1905;52.482;9.802;2022-07-06T09:53:14;101831.41;;;23.13;43.31
3780;BME280;1905;52.482;9.802;2022-07-06T09:55:46;101842.09;;;23.15;43.62
3780;BME280;1905;52.482;9.802;2022-07-06T09:58:15;101842.84;;;23.28;43.50
3780;BME280;1905;52.482;9.802;2022-07-06T10:00:42;101842.13;;;23.26;43.04
3780;BME280;1905;52.482;9.802;2022-07-06T10:03:11;101836.25;;;23.32;43.36
3780;BME280;1905;52.482;9.802;2022-07-06T10:05:41;101839.97;;;23.42;43.72
3780;BME280;1905;52.482;9.802;2022-07-06T10:08:09;101844.06;;;23.35;42.72
3780;BME280;1905;52.482;9.802;2022-07-06T10:10:39;101836.53;;;23.40;43.07
3780;BME280;1905;52.482;9.802;2022-07-06T10:13:08;101838.97;;;23.43;43.17
3780;BME280;1905;52.482;9.802;2022-07-06T10:15:39;101841.41;;;23.46;43.38
3780;BME280;1905;52.482;9.802;2022-07-06T10:18:08;101841.66;;;23.43;43.15
3780;BME280;1905;52.482;9.802;2022-07-06T10:20:38;101836.53;;;23.51;43.19
3780;BME280;1905;52.482;9.802;2022-07-06T10:23:08;101851.38;;;23.45;42.36
3780;BME280;1905;52.482;9.802;2022-07-06T10:25:36;101845.34;;;23.42;42.73
3780;BME280;1905;52.482;9.802;2022-07-06T10:28:04;101848.53;;;23.47;42.85
3780;BME280;1905;52.482;9.802;2022-07-06T10:30:42;101859.28;;;23.36;43.00
3780;BME280;1905;52.482;9.802;2022-07-06T10:33:11;101853.44;;;23.42;42.90
3780;BME280;1905;52.482;9.802;2022-07-06T10:35:41;101857.25;;;23.39;43.00
3780;BME280;1905;52.482;9.802;2022-07-06T10:38:10;101859.41;;;23.34;42.93
3780;BME280;1905;52.482;9.802;2022-07-06T10:40:41;101864.19;;;23.31;42.84
3780;BME280;1905;52.482;9.802;2022-07-06T10:43:34;101859.75;;;23.30;43.24
3780;BME280;1905;52.482;9.802;2022-07-06T10:46:08;101848.25;;;23.28;43.38
3780;BME280;1905;52.482;9.802;2022-07-06T10:48:38;101857.41;;;23.14;42.06
3780;BME280;1905;52.482;9.802;2022-07-06T10:51:06;101853.25;;;23.21;43.00
3780;BME280;1905;52.482;9.802;2022-07-06T10:53:36;101854.09;;;23.22;43.11
3780;BME280;1905;52.482;9.802;2022-07-06T10:56:05;101849.97;;;23.29;43.27
3780;BME280;1905;52.482;9.802;2022-07-06T10:58:37;101852.66;;;23.29;42.81
3780;BME280;1905;52.482;9.802;2022-07-06T11:01:08;101856.81;;;23.33;43.04
3780;BME280;1905;52.482;9.802;2022-07-06T11:03:38;101848.47;;;23.25;43.10
3780;BME280;1905;52.482;9.802;2022-07-06T11:06:08;101848.88;;;23.31;43.08
3780;BME280;1905;52.482;9.802;2022-07-06T11:08:45;101848.94;;;23.19;43.56
3780;BME280;1905;52.482;9.802;2022-07-06T11:11:14;101852.16;;;23.24;43.02
3780;BME280;1905;52.482;9.802;2022-07-06T11:13:47;101847.75;;;23.23;43.26
3780;BME280;1905;52.482;9.802;2022-07-06T11:16:17;101847.72;;;23.11;43.31
3780;BME280;1905;52.482;9.802;2022-07-06T11:18:47;101844.75;;;23.03;43.47
3780;BME280;1905;52.482;9.802;2022-07-06T11:21:21;101839.38;;;23.03;43.02
3780;BME280;1905;52.482;9.802;2022-07-06T11:23:50;101847.69;;;23.00;43.22
3780;BME280;1905;52.482;9.802;2022-07-06T11:26:18;101849.16;;;22.93;43.26
3780;BME280;1905;52.482;9.802;2022-07-06T11:28:47;101844.94;;;22.89;43.29
3780;BME280;1905;52.482;9.802;2022-07-06T11:31:17;101851.03;;;22.80;42.84
3780;BME280;1905;52.482;9.802;2022-07-06T11:33:46;101839.53;;;22.78;43.54
3780;BME280;1905;52.482;9.802;2022-07-06T11:36:15;101837.19;;;22.74;43.84
3780;BME280;1905;52.482;9.802;2022-07-06T11:38:45;101839.59;;;22.66;43.12
3780;BME280;1905;52.482;9.802;2022-07-06T11:41:13;101837.88;;;22.65;43.47
3780;BME280;1905;52.482;9.802;2022-07-06T11:43:42;101838.75;;;22.65;43.85
3780;BME280;1905;52.482;9.802;2022-07-06T11:46:21;101834.31;;;22.64;43.86
3780;BME280;1905;52.482;9.802;2022-07-06T11:48:52;101840.97;;;22.47;43.89
3780;BME280;1905;52.482;9.802;2022-07-06T11:51:20;101830.19;;;22.47;44.11
3780;BME280;1905;52.482;9.802;2022-07-06T11:53:52;101831.22;;;22.58;43.81
3780;BME280;1905;52.482;9.802;2022-07-06T11:56:22;101828.84;;;22.53;43.92
3780;BME280;1905;52.482;9.802;2022-07-06T11:58:52;101823.72;;;22.50;42.98
3780;BME280;1905;52.482;9.802;2022-07-06T12:01:22;101833.13;;;22.68;43.78
3780;BME280;1905;52.482;9.802;2022-07-06T12:03:51;101828.59;;;22.69;43.10
3780;BME280;1905;52.482;9.802;2022-07-06T12:06:20;101832.66;;;22.74;43.68
3780;BME280;1905;52.482;9.802;2022-07-06T12:08:50;101831.47;;;22.89;43.66
3780;BME280;1905;52.482;9.802;2022-07-06T12:11:19;101821.69;;;22.99;43.73
3780;BME280;1905;52.482;9.802;2022-07-06T12:13:48;101826.13;;;23.00;43.00
3780;BME280;1905;52.482;9.802;2022-07-06T12:16:17;101812.44;;;23.15;43.63
3780;BME280;1905;52.482;9.802;2022-07-06T12:18:47;101809.38;;;23.30;43.68
3780;BME280;1905;52.482;9.802;2022-07-06T12:21:17;101813.69;;;23.33;43.14
3780;BME280;1905;52.482;9.802;2022-07-06T12:23:48;101807.72;;;23.51;43.06
3780;BME280;1905;52.482;9.802;2022-07-06T12:26:18;101813.00;;;23.64;42.93
3780;BME280;1905;52.482;9.802;2022-07-06T12:28:47;101804.16;;;23.62;42.63
3780;BME280;1905;52.482;9.802;2022-07-06T12:31:33;101803.66;;;23.79;42.97
3780;BME280;1905;52.482;9.802;2022-07-06T12:34:03;101799.13;;;23.91;42.27
3780;BME280;1905;52.482;9.802;2022-07-06T12:36:42;101791.88;;;24.02;42.52
3780;BME280;1905;52.482;9.802;2022-07-06T12:39:11;101792.09;;;23.99;41.92
3780;BME280;1905;52.482;9.802;2022-07-06T12:41:44;101788.06;;;24.16;42.17
3780;BME280;1905;52.482;9.802;2022-07-06T12:44:17;101787.41;;;24.23;41.66
3780;BME280;1905;52.482;9.802;2022-07-06T12:46:45;101791.13;;;24.11;41.92
3780;BME280;1905;52.482;9.802;2022-07-06T12:49:19;101797.50;;;24.21;42.00
3780;BME280;1905;52.482;9.802;2022-07-06T12:52:08;101787.28;;;24.25;41.78
3780;BME280;1905;52.482;9.802;2022-07-06T12:54:46;101786.16;;;24.27;41.83
3780;BME280;1905;52.482;9.802;2022-07-06T12:57:15;101784.22;;;24.30;41.42
3780;BME280;1905;52.482;9.802;2022-07-06T12:59:46;101790.97;;;24.24;39.64
3780;BME280;1905;52.482;9.802;2022-07-06T13:02:20;101790.38;;;24.20;41.35
3780;BME280;1905;52.482;9.802;2022-07-06T13:05:11;101788.41;;;24.00;41.70
3780;BME280;1905;52.482;9.802;2022-07-06T13:07:44;101789.88;;;24.26;41.44
3780;BME280;1905;52.482;9.802;2022-07-06T13:10:14;101786.44;;;24.13;41.45
3780;BME280;1905;52.482;9.802;2022-07-06T13:12:43;101787.88;;;24.28;41.28
3780;BME280;1905;52.482;9.802;2022-07-06T13:15:11;101787.63;;;24.32;41.26
3780;BME280;1905;52.482;9.802;2022-07-06T13:17:39;101782.22;;;24.32;41.29
3780;BME280;1905;52.482;9.802;2022-07-06T13:20:10;101780.50;;;24.31;41.27
3780;BME280;1905;52.482;9.802;2022-07-06T13:22:38;101778.53;;;24.33;41.41